sensor_id;sensor_type;location;lat;lon;timestamp;pressure;altitude;pressure_sealevel;temperature;humidity
53522;BME280;39398;48.382;9.802;2023-06-26T00:04:08;93921.25;;;21.34;73.62
53522;BME280;39398;48.382;9.802;2023-06-26T00:09:10;93921.25;;;21.29;75.02
53522;BME280;39398;48.382;9.802;2023-06-26T00:14:11;93920.66;;;21.22;76.24
53522;BME280;39398;48.382;9.802;2023-06-26T00:19:15;93923.06;;;21.24;75.06
53522;BME280;39398;48.382;9.802;2023-06-26T00:24:17;93925.75;;;21.24;74.23
53522;BME280;39398;48.382;9.802;2023-06-26T00:29:19;93934.31;;;21.21;75.79
53522;BME280;39398;48.382;9.802;2023-06-26T00:34:22;93922.22;;;21.18;74.57
53522;BME280;39398;48.382;9.802;2023-06-26T00:39:24;93921.63;;;21.06;75.81
53522;BME280;39398;48.382;9.802;2023-06-26T00:44:25;93921.72;;;20.89;75.96
53522;BME280;39398;48.382;9.802;2023-06-26T00:49:28;93926.88;;;20.96;76.97
53522;BME280;39398;48.382;9.802;2023-06-26T00:54:30;93930.03;;;20.87;75.91
53522;BME280;39398;48.382;9.802;2023-06-26T00:59:32;93924.59;;;20.77;77.90
53522;BME280;39398;48.382;9.802;2023-06-26T01:04:36;93921.06;;;20.77;76.27
53522;BME280;39398;48.382;9.802;2023-06-26T01:09:37;93928.31;;;20.76;75.13
53522;BME280;39398;48.382;9.802;2023-06-26T01:14:39;93924.03;;;20.75;75.92
53522;BME280;39398;48.382;9.802;2023-06-26T01:19:43;93918.00;;;20.63;76.63
53522;BME280;39398;48.382;9.802;2023-06-26T01:24:53;93918.38;;;20.50;75.32
53522;BME280;39398;48.382;9.802;2023-06-26T01:30:00;93903.75;;;20.35;78.57
53522;BME280;39398;48.382;9.802;2023-06-26T01:35:06;93899.94;;;20.31;76.81
53522;BME280;39398;48.382;9.802;2023-06-26T01:40:09;93898.66;;;20.34;77.13
53522;BME280;39398;48.382;9.802;2023-06-26T01:45:21;93894.56;;;20.26;80.03
53522;BME280;39398;48.382;9.802;2023-06-26T01:50:26;93883.84;;;20.26;78.17
53522;BME280;39398;48.382;9.802;2023-06-26T01:55:36;93883.63;;;20.33;77.12
53522;BME280;39398;48.382;9.802;2023-06-26T02:00:40;93882.47;;;20.24;78.83
53522;BME280;39398;48.382;9.802;2023-06-26T02:05:42;93887.91;;;20.34;79.91
53522;BME280;39398;48.382;9.802;2023-06-26T02:10:44;93887.53;;;20.20;77.35
53522;BME280;39398;48.382;9.802;2023-06-26T02:15:47;93888.13;;;20.27;77.73
53522;BME280;39398;48.382;9.802;2023-06-26T02:20:48;93883.50;;;20.23;77.32
53522;BME280;39398;48.382;9.802;2023-06-26T02:25:50;93878.13;;;20.23;80.68
53522;BME280;39398;48.382;9.802;2023-06-26T02:30:53;93884.34;;;20.23;79.09
53522;BME280;39398;48.382;9.802;2023-06-26T02:35:54;93876.78;;;20.20;78.48
53522;BME280;39398;48.382;9.802;2023-06-26T02:40:56;93877.00;;;20.13;81.57
53522;BME280;39398;48.382;9.802;2023-06-26T02:45:59;93879.09;;;20.11;78.97
53522;BME280;39398;48.382;9.802;2023-06-26T02:51:01;93879.22;;;20.00;79.70
53522;BME280;39398;48.382;9.802;2023-06-26T02:56:02;93889.41;;;19.97;80.20
53522;BME280;39398;48.382;9.802;2023-06-26T03:01:05;93886.78;;;19.81;83.08
53522;BME280;39398;48.382;9.802;2023-06-26T03:06:07;93890.13;;;19.71;83.36
53522;BME280;39398;48.382;9.802;2023-06-26T03:11:09;93892.34;;;19.57;83.34
53522;BME280;39398;48.382;9.802;2023-06-26T03:16:12;93879.69;;;19.52;83.01
53522;BME280;39398;48.382;9.802;2023-06-26T03:21:14;93886.00;;;19.63;84.10
53522;BME280;39398;48.382;9.802;2023-06-26T03:26:16;93886.69;;;19.54;84.95
53522;BME280;39398;48.382;9.802;2023-06-26T03:31:19;93885.00;;;19.47;85.64
53522;BME280;39398;48.382;9.802;2023-06-26T03:36:21;93886.22;;;19.40;86.20
53522;BME280;39398;48.382;9.802;2023-06-26T03:41:23;93883.66;;;19.28;85.29
53522;BME280;39398;48.382;9.802;2023-06-26T03:46:26;93896.31;;;19.16;86.18
53522;BME280;39398;48.382;9.802;2023-06-26T03:51:28;93897.03;;;19.11;85.85
53522;BME280;39398;48.382;9.802;2023-06-26T03:56:29;93902.38;;;19.28;86.75
53522;BME280;39398;48.382;9.802;2023-06-26T04:01:32;93892.22;;;19.30;86.59
53522;BME280;39398;48.382;9.802;2023-06-26T04:06:34;93899.47;;;19.29;87.20
53522;BME280;39398;48.382;9.802;2023-06-26T04:11:35;93909.81;;;19.43;85.71
53522;BME280;39398;48.382;9.802;2023-06-26T04:16:38;93902.44;;;19.50;86.02
53522;BME280;39398;48.382;9.802;2023-06-26T04:21:40;93907.19;;;19.65;85.64
53522;BME280;39398;48.382;9.802;2023-06-26T04:26:42;93909.69;;;19.71;85.59
53522;BME280;39398;48.382;9.802;2023-06-26T04:31:45;93905.16;;;19.72;88.91
53522;BME280;39398;48.382;9.802;2023-06-26T04:36:47;93911.38;;;19.78;86.15
53522;BME280;39398;48.382;9.802;2023-06-26T04:41:48;93911.88;;;19.74;86.58
53522;BME280;39398;48.382;9.802;2023-06-26T04:46:51;93899.13;;;19.82;86.24
53522;BME280;39398;48.382;9.802;2023-06-26T04:51:54;93904.66;;;19.97;86.70
53522;BME280;39398;48.382;9.802;2023-06-26T04:56:56;93904.47;;;20.04;87.02
53522;BME280;39398;48.382;9.802;2023-06-26T05:01:59;93900.16;;;20.03;87.27
53522;BME280;39398;48.382;9.802;2023-06-26T05:07:00;93897.78;;;20.28;87.20
53522;BME280;39398;48.382;9.802;2023-06-26T05:12:03;93899.81;;;20.43;87.79
53522;BME280;39398;48.382;9.802;2023-06-26T05:17:06;93901.19;;;20.73;87.87
53522;BME280;39398;48.382;9.802;2023-06-26T05:22:08;93902.47;;;20.97;86.78
53522;BME280;39398;48.382;9.802;2023-06-26T05:27:11;93901.97;;;21.38;85.99
53522;BME280;39398;48.382;9.802;2023-06-26T05:32:16;93900.00;;;21.65;85.24
53522;BME280;39398;48.382;9.802;2023-06-26T05:37:20;93899.81;;;21.77;83.31
53522;BME280;39398;48.382;9.802;2023-06-26T05:42:22;93902.94;;;22.16;82.82
53522;BME280;39398;48.382;9.802;2023-06-26T05:47:25;93896.34;;;22.49;81.69
53522;BME280;39398;48.382;9.802;2023-06-26T05:52:28;93902.31;;;23.13;80.48
53522;BME280;39398;48.382;9.802;2023-06-26T05:57:30;93907.13;;;23.72;80.19
53522;BME280;39398;48.382;9.802;2023-06-26T06:02:33;93894.81;;;24.21;78.03
53522;BME280;39398;48.382;9.802;2023-06-26T06:07:35;93894.97;;;24.55;76.73
53522;BME280;39398;48.382;9.802;2023-06-26T06:12:37;93902.72;;;25.06;74.96
53522;BME280;39398;48.382;9.802;2023-06-26T06:17:40;93903.66;;;25.25;75.16
53522;BME280;39398;48.382;9.802;2023-06-26T06:22:42;93903.91;;;25.58;75.17
53522;BME280;39398;48.382;9.802;2023-06-26T06:27:44;93905.38;;;25.45;72.11
53522;BME280;39398;48.382;9.802;2023-06-26T06:32:47;93911.97;;;26.16;71.17
53522;BME280;39398;48.382;9.802;2023-06-26T06:37:49;93910.59;;;26.38;70.98
53522;BME280;39398;48.382;9.802;2023-06-26T06:42:50;93904.16;;;26.58;69.42
53522;BME280;39398;48.382;9.802;2023-06-26T06:47:53;93910.72;;;26.71;70.65
53522;BME280;39398;48.382;9.802;2023-06-26T06:52:56;93911.09;;;26.83;68.60
53522;BME280;39398;48.382;9.802;2023-06-26T06:57:58;93922.66;;;27.45;68.33
53522;BME280;39398;48.382;9.802;2023-06-26T07:03:01;93920.09;;;27.68;68.69
53522;BME280;39398;48.382;9.802;2023-06-26T07:08:03;93914.56;;;27.26;68.24
53522;BME280;39398;48.382;9.802;2023-06-26T07:13:04;93924.75;;;26.97;68.37
53522;BME280;39398;48.382;9.802;2023-06-26T07:18:07;93921.28;;;27.62;67.98
53522;BME280;39398;48.382;9.802;2023-06-26T07:23:09;93916.75;;;27.90;66.12
53522;BME280;39398;48.382;9.802;2023-06-26T07:28:11;93916.38;;;28.24;66.88
53522;BME280;39398;48.382;9.802;2023-06-26T07:33:14;93919.28;;;28.27;65.64
53522;BME280;39398;48.382;9.802;2023-06-26T07:38:16;93914.81;;;28.73;67.07
53522;BME280;39398;48.382;9.802;2023-06-26T07:43:17;93910.81;;;29.07;66.70
53522;BME280;39398;48.382;9.802;2023-06-26T07:48:20;93915.94;;;29.08;63.57
53522;BME280;39398;48.382;9.802;2023-06-26T07:53:22;93922.09;;;29.14;64.61
53522;BME280;39398;48.382;9.802;2023-06-26T07:58:23;93921.00;;;28.87;65.28
53522;BME280;39398;48.382;9.802;2023-06-26T08:03:26;93925.72;;;29.09;64.12
53522;BME280;39398;48.382;9.802;2023-06-26T08:08:36;93929.94;;;29.60;64.86
53522;BME280;39398;48.382;9.802;2023-06-26T08:13:37;93916.00;;;29.84;61.19
53522;BME280;39398;48.382;9.802;2023-06-26T08:18:40;93917.59;;;30.17;62.68
53522;BME280;39398;48.382;9.802;2023-06-26T08:23:42;93918.81;;;29.71;62.06
53522;BME280;39398;48.382;9.802;2023-06-26T08:28:43;93912.06;;;30.30;61.80
53522;BME280;39398;48.382;9.802;2023-06-26T08:33:46;93900.94;;;30.58;60.26
53522;BME280;39398;48.382;9.802;2023-06-26T08:38:48;93907.28;;;30.05;61.17
53522;BME280;39398;48.382;9.802;2023-06-26T08:43:50;93901.31;;;30.25;59.18
53522;BME280;39398;48.382;9.802;2023-06-26T08:48:55;93901.81;;;29.42;60.68
53522;BME280;39398;48.382;9.802;2023-06-26T08:53:58;93911.50;;;28.76;62.66
53522;BME280;39398;48.382;9.802;2023-06-26T08:59:00;93900.63;;;28.76;59.32
53522;BME280;39398;48.382;9.802;2023-06-26T09:04:03;93911.50;;;28.76;62.07
53522;BME280;39398;48.382;9.802;2023-06-26T09:09:05;93921.78;;;28.24;62.53
53522;BME280;39398;48.382;9.802;2023-06-26T09:14:07;93925.72;;;28.18;64.26
53522;BME280;39398;48.382;9.802;2023-06-26T09:19:11;93918.91;;;27.74;61.72
53522;BME280;39398;48.382;9.802;2023-06-26T09:24:13;93903.59;;;28.24;65.47
53522;BME280;39398;48.382;9.802;2023-06-26T09:29:15;93915.34;;;28.20;63.68
53522;BME280;39398;48.382;9.802;2023-06-26T09:34:19;93911.84;;;28.47;65.40
53522;BME280;39398;48.382;9.802;2023-06-26T09:39:20;93909.19;;;28.69;61.40
53522;BME280;39398;48.382;9.802;2023-06-26T09:44:22;93916.75;;;28.59;61.68
53522;BME280;39398;48.382;9.802;2023-06-26T09:49:24;93901.50;;;28.85;59.42
53522;BME280;39398;48.382;9.802;2023-06-26T09:54:27;93889.50;;;29.23;56.90
53522;BME280;39398;48.382;9.802;2023-06-26T09:59:28;93890.66;;;28.71;58.05
53522;BME280;39398;48.382;9.802;2023-06-26T10:04:32;93889.47;;;28.64;59.96
53522;BME280;39398;48.382;9.802;2023-06-26T10:09:36;93894.38;;;29.79;56.91
53522;BME280;39398;48.382;9.802;2023-06-26T10:14:39;93883.75;;;29.47;56.73
53522;BME280;39398;48.382;9.802;2023-06-26T10:19:47;93896.97;;;28.94;60.71
53522;BME280;39398;48.382;9.802;2023-06-26T10:24:50;93893.16;;;29.94;50.90
53522;BME280;39398;48.382;9.802;2023-06-26T10:29:55;93893.47;;;31.07;50.94
53522;BME280;39398;48.382;9.802;2023-06-26T10:34:59;93902.25;;;29.89;56.72
53522;BME280;39398;48.382;9.802;2023-06-26T10:40:01;93896.59;;;29.32;57.75
53522;BME280;39398;48.382;9.802;2023-06-26T10:45:16;93890.69;;;29.53;59.71
53522;BME280;39398;48.382;9.802;2023-06-26T10:50:25;93890.38;;;29.09;53.67
53522;BME280;39398;48.382;9.802;2023-06-26T10:55:27;93897.25;;;29.52;61.08
53522;BME280;39398;48.382;9.802;2023-06-26T11:00:29;93895.75;;;29.01;55.19
53522;BME280;39398;48.382;9.802;2023-06-26T11:05:33;93902.88;;;29.33;56.58
53522;BME280;39398;48.382;9.802;2023-06-26T11:10:52;93894.00;;;29.72;53.85
53522;BME280;39398;48.382;9.802;2023-06-26T11:15:56;93892.22;;;29.23;55.94
53522;BME280;39398;48.382;9.802;2023-06-26T11:21:05;93890.78;;;30.01;57.25
53522;BME280;39398;48.382;9.802;2023-06-26T11:26:14;93882.47;;;30.46;53.77
53522;BME280;39398;48.382;9.802;2023-06-26T11:31:26;93883.19;;;28.91;55.41
53522;BME280;39398;48.382;9.802;2023-06-26T11:36:31;93885.28;;;30.24;53.04
53522;BME280;39398;48.382;9.802;2023-06-26T11:41:34;93884.22;;;29.62;58.50
53522;BME280;39398;48.382;9.802;2023-06-26T11:46:36;93884.88;;;29.46;52.50
53522;BME280;39398;48.382;9.802;2023-06-26T11:51:39;93876.75;;;30.17;54.30
53522;BME280;39398;48.382;9.802;2023-06-26T11:56:40;93872.59;;;29.79;55.38
53522;BME280;39398;48.382;9.802;2023-06-26T12:01:43;93878.03;;;29.79;53.30
53522;BME280;39398;48.382;9.802;2023-06-26T12:06:47;93876.88;;;28.82;56.81
53522;BME280;39398;48.382;9.802;2023-06-26T12:11:53;93889.59;;;28.03;60.93
53522;BME280;39398;48.382;9.802;2023-06-26T12:16:55;93884.66;;;29.11;63.62
53522;BME280;39398;48.382;9.802;2023-06-26T12:21:58;93895.16;;;28.90;62.85
53522;BME280;39398;48.382;9.802;2023-06-26T12:27:00;93880.91;;;29.07;59.18
53522;BME280;39398;48.382;9.802;2023-06-26T12:32:02;93891.63;;;28.89;62.66
53522;BME280;39398;48.382;9.802;2023-06-26T12:37:07;93888.28;;;28.01;69.01
53522;BME280;39398;48.382;9.802;2023-06-26T12:42:13;93891.41;;;27.80;72.29
53522;BME280;39398;48.382;9.802;2023-06-26T12:47:17;93877.06;;;27.80;78.71
53522;BME280;39398;48.382;9.802;2023-06-26T12:52:20;93867.22;;;28.12;74.58
53522;BME280;39398;48.382;9.802;2023-06-26T12:57:24;93863.88;;;28.15;74.05
53522;BME280;39398;48.382;9.802;2023-06-26T13:02:26;93866.44;;;27.51;74.83
53522;BME280;39398;48.382;9.802;2023-06-26T13:07:29;93857.91;;;27.57;74.88
53522;BME280;39398;48.382;9.802;2023-06-26T13:12:30;93851.44;;;26.31;78.35
53522;BME280;39398;48.382;9.802;2023-06-26T13:17:32;93853.94;;;27.36;71.13
53522;BME280;39398;48.382;9.802;2023-06-26T13:22:38;93857.84;;;27.90;70.70
53522;BME280;39398;48.382;9.802;2023-06-26T13:27:40;93848.06;;;28.81;70.14
53522;BME280;39398;48.382;9.802;2023-06-26T13:32:41;93843.38;;;29.09;67.73
53522;BME280;39398;48.382;9.802;2023-06-26T13:37:44;93863.16;;;28.50;69.65
53522;BME280;39398;48.382;9.802;2023-06-26T13:42:45;93855.66;;;28.70;69.45
53522;BME280;39398;48.382;9.802;2023-06-26T13:47:48;93851.19;;;27.69;68.87
53522;BME280;39398;48.382;9.802;2023-06-26T13:52:51;93845.28;;;28.22;68.93
53522;BME280;39398;48.382;9.802;2023-06-26T13:57:52;93851.31;;;28.46;75.58
53522;BME280;39398;48.382;9.802;2023-06-26T14:02:54;93851.22;;;28.24;72.54
53522;BME280;39398;48.382;9.802;2023-06-26T14:07:57;93852.72;;;28.16;77.42
53522;BME280;39398;48.382;9.802;2023-06-26T14:13:00;93856.28;;;28.67;70.58
53522;BME280;39398;48.382;9.802;2023-06-26T14:18:02;93864.72;;;28.65;71.71
53522;BME280;39398;48.382;9.802;2023-06-26T14:23:05;93856.47;;;29.07;72.65
53522;BME280;39398;48.382;9.802;2023-06-26T14:28:07;93857.50;;;29.19;67.84
53522;BME280;39398;48.382;9.802;2023-06-26T14:33:08;93852.34;;;28.09;71.63
53522;BME280;39398;48.382;9.802;2023-06-26T14:38:11;93837.97;;;27.81;72.94
53522;BME280;39398;48.382;9.802;2023-06-26T14:43:13;93854.28;;;27.76;75.28
53522;BME280;39398;48.382;9.802;2023-06-26T14:48:15;93859.16;;;27.79;75.52
53522;BME280;39398;48.382;9.802;2023-06-26T14:53:18;93842.47;;;28.13;72.73
53522;BME280;39398;48.382;9.802;2023-06-26T14:58:21;93841.47;;;28.09;71.17
53522;BME280;39398;48.382;9.802;2023-06-26T15:03:23;93835.66;;;27.28;76.98
53522;BME280;39398;48.382;9.802;2023-06-26T15:08:26;93842.00;;;27.37;78.58
53522;BME280;39398;48.382;9.802;2023-06-26T15:13:27;93849.84;;;26.87;82.75
53522;BME280;39398;48.382;9.802;2023-06-26T15:18:29;93838.25;;;26.67;86.58
53522;BME280;39398;48.382;9.802;2023-06-26T15:23:33;93835.53;;;26.67;86.70
53522;BME280;39398;48.382;9.802;2023-06-26T15:28:34;93829.16;;;26.77;84.02
53522;BME280;39398;48.382;9.802;2023-06-26T15:33:36;93839.16;;;26.77;87.63
53522;BME280;39398;48.382;9.802;2023-06-26T15:38:40;93834.47;;;26.82;80.12
53522;BME280;39398;48.382;9.802;2023-06-26T15:43:42;93834.88;;;26.57;86.35
53522;BME280;39398;48.382;9.802;2023-06-26T15:48:43;93828.03;;;26.21;84.79
53522;BME280;39398;48.382;9.802;2023-06-26T15:53:46;93817.13;;;26.27;82.41
53522;BME280;39398;48.382;9.802;2023-06-26T15:58:48;93812.16;;;25.91;86.43
53522;BME280;39398;48.382;9.802;2023-06-26T16:03:49;93811.25;;;25.77;81.29
53522;BME280;39398;48.382;9.802;2023-06-26T16:08:52;93805.78;;;25.58;85.31
53522;BME280;39398;48.382;9.802;2023-06-26T16:13:54;93814.72;;;25.82;83.78
53522;BME280;39398;48.382;9.802;2023-06-26T16:18:56;93814.63;;;25.39;82.45
53522;BME280;39398;48.382;9.802;2023-06-26T16:23:59;93809.56;;;25.86;81.64
53522;BME280;39398;48.382;9.802;2023-06-26T16:29:01;93802.69;;;25.45;80.83
53522;BME280;39398;48.382;9.802;2023-06-26T16:34:02;93800.13;;;25.30;79.83
53522;BME280;39398;48.382;9.802;2023-06-26T16:39:05;93794.59;;;25.16;79.64
53522;BME280;39398;48.382;9.802;2023-06-26T16:44:08;93792.13;;;24.91;82.85
53522;BME280;39398;48.382;9.802;2023-06-26T16:49:09;93813.72;;;24.91;82.93
53522;BME280;39398;48.382;9.802;2023-06-26T16:54:12;93821.72;;;25.01;85.02
53522;BME280;39398;48.382;9.802;2023-06-26T16:59:14;93827.78;;;25.22;82.77
53522;BME280;39398;48.382;9.802;2023-06-26T17:04:16;93828.91;;;24.81;83.61
53522;BME280;39398;48.382;9.802;2023-06-26T17:09:19;93832.72;;;24.36;82.59
53522;BME280;39398;48.382;9.802;2023-06-26T17:14:21;93841.91;;;24.35;81.47
53522;BME280;39398;48.382;9.802;2023-06-26T17:19:23;93851.25;;;23.98;84.44
53522;BME280;39398;48.382;9.802;2023-06-26T17:24:26;93868.78;;;24.55;84.41
53522;BME280;39398;48.382;9.802;2023-06-26T17:29:28;93858.22;;;24.04;86.91
53522;BME280;39398;48.382;9.802;2023-06-26T17:34:30;93885.13;;;24.20;84.71
53522;BME280;39398;48.382;9.802;2023-06-26T17:39:32;93897.16;;;23.57;85.36
53522;BME280;39398;48.382;9.802;2023-06-26T17:44:35;93906.38;;;23.31;86.64
53522;BME280;39398;48.382;9.802;2023-06-26T17:49:37;93915.50;;;23.19;85.47
53522;BME280;39398;48.382;9.802;2023-06-26T17:54:41;93907.19;;;22.95;86.29
53522;BME280;39398;48.382;9.802;2023-06-26T17:59:42;93925.75;;;23.02;86.00
53522;BME280;39398;48.382;9.802;2023-06-26T18:04:45;93932.94;;;22.61;87.57
53522;BME280;39398;48.382;9.802;2023-06-26T18:09:48;93946.34;;;22.45;86.86
53522;BME280;39398;48.382;9.802;2023-06-26T18:14:50;93946.88;;;22.42;86.42
53522;BME280;39398;48.382;9.802;2023-06-26T18:19:51;93936.78;;;22.12;87.96
53522;BME280;39398;48.382;9.802;2023-06-26T18:24:54;93940.69;;;22.37;86.39
53522;BME280;39398;48.382;9.802;2023-06-26T18:29:56;93948.59;;;22.11;89.21
53522;BME280;39398;48.382;9.802;2023-06-26T18:34:58;93959.34;;;22.06;85.27
53522;BME280;39398;48.382;9.802;2023-06-26T18:40:01;93960.28;;;21.79;86.28
53522;BME280;39398;48.382;9.802;2023-06-26T18:45:03;93974.66;;;21.58;83.87
53522;BME280;39398;48.382;9.802;2023-06-26T18:50:06;93968.44;;;21.52;82.88
53522;BME280;39398;48.382;9.802;2023-06-26T18:55:10;93967.63;;;21.25;80.47
53522;BME280;39398;48.382;9.802;2023-06-26T19:00:12;93986.63;;;20.86;83.38
53522;BME280;39398;48.382;9.802;2023-06-26T19:05:14;93986.13;;;20.62;80.00
53522;BME280;39398;48.382;9.802;2023-06-26T19:10:17;93986.88;;;20.84;75.53
53522;BME280;39398;48.382;9.802;2023-06-26T19:15:19;94002.94;;;20.35;77.57
53522;BME280;39398;48.382;9.802;2023-06-26T19:20:21;94007.88;;;20.43;77.47
53522;BME280;39398;48.382;9.802;2023-06-26T19:25:24;94016.28;;;20.08;77.95
53522;BME280;39398;48.382;9.802;2023-06-26T19:30:26;94035.66;;;20.15;77.26
53522;BME280;39398;48.382;9.802;2023-06-26T19:35:28;94036.22;;;19.79;78.96
53522;BME280;39398;48.382;9.802;2023-06-26T19:40:32;94029.25;;;19.78;77.50
53522;BME280;39398;48.382;9.802;2023-06-26T19:45:34;94047.59;;;19.69;80.03
53522;BME280;39398;48.382;9.802;2023-06-26T19:50:35;94055.56;;;19.64;78.40
53522;BME280;39398;48.382;9.802;2023-06-26T19:55:38;94064.09;;;19.15;81.21
53522;BME280;39398;48.382;9.802;2023-06-26T20:00:40;94065.81;;;19.38;76.80
53522;BME280;39398;48.382;9.802;2023-06-26T20:05:42;94073.91;;;19.26;78.65
53522;BME280;39398;48.382;9.802;2023-06-26T20:10:45;94088.88;;;19.11;78.70
53522;BME280;39398;48.382;9.802;2023-06-26T20:15:47;94080.00;;;19.22;77.94
53522;BME280;39398;48.382;9.802;2023-06-26T20:20:49;94085.69;;;18.97;78.36
53522;BME280;39398;48.382;9.802;2023-06-26T20:25:52;94085.88;;;18.78;78.53
53522;BME280;39398;48.382;9.802;2023-06-26T20:30:53;94099.91;;;18.45;78.87
53522;BME280;39398;48.382;9.802;2023-06-26T20:35:55;94109.78;;;18.33;80.36
53522;BME280;39398;48.382;9.802;2023-06-26T20:40:59;94115.94;;;18.45;78.07
53522;BME280;39398;48.382;9.802;2023-06-26T20:46:01;94131.88;;;18.28;80.14
53522;BME280;39398;48.382;9.802;2023-06-26T20:51:04;94127.25;;;18.00;79.89
53522;BME280;39398;48.382;9.802;2023-06-26T20:56:08;94133.25;;;17.96;80.83
53522;BME280;39398;48.382;9.802;2023-06-26T21:01:10;94126.28;;;17.83;81.50
53522;BME280;39398;48.382;9.802;2023-06-26T21:06:11;94129.69;;;18.13;78.67
53522;BME280;39398;48.382;9.802;2023-06-26T21:11:14;94126.66;;;17.98;80.06
53522;BME280;39398;48.382;9.802;2023-06-26T21:16:16;94139.19;;;17.86;81.59
53522;BME280;39398;48.382;9.802;2023-06-26T21:21:18;94144.66;;;17.91;82.38
53522;BME280;39398;48.382;9.802;2023-06-26T21:26:21;94156.91;;;17.69;84.73
53522;BME280;39398;48.382;9.802;2023-06-26T21:31:24;94158.84;;;17.50;86.53
53522;BME280;39398;48.382;9.802;2023-06-26T21:36:25;94160.44;;;17.81;83.13
53522;BME280;39398;48.382;9.802;2023-06-26T21:41:29;94155.25;;;18.09;83.63
53522;BME280;39398;48.382;9.802;2023-06-26T21:46:33;94159.84;;;18.38;81.44
53522;BME280;39398;48.382;9.802;2023-06-26T21:51:34;94167.44;;;18.17;80.55
53522;BME280;39398;48.382;9.802;2023-06-26T21:56:37;94175.69;;;18.16;80.72
53522;BME280;39398;48.382;9.802;2023-06-26T22:01:39;94178.56;;;17.49;85.07
53522;BME280;39398;48.382;9.802;2023-06-26T22:06:41;94183.63;;;17.08;86.94
53522;BME280;39398;48.382;9.802;2023-06-26T22:11:44;94178.09;;;16.91;87.76
53522;BME280;39398;48.382;9.802;2023-06-26T22:16:46;94185.03;;;16.74;88.44
53522;BME280;39398;48.382;9.802;2023-06-26T22:21:48;94184.53;;;16.84;87.88
53522;BME280;39398;48.382;9.802;2023-06-26T22:26:51;94175.28;;;16.86;88.27
53522;BME280;39398;48.382;9.802;2023-06-26T22:31:52;94179.47;;;16.57;90.40
53522;BME280;39398;48.382;9.802;2023-06-26T22:36:54;94183.84;;;16.51;89.84
53522;BME280;39398;48.382;9.802;2023-06-26T22:41:57;94182.56;;;16.36;92.65
53522;BME280;39398;48.382;9.802;2023-06-26T22:46:58;94184.44;;;16.35;92.40
53522;BME280;39398;48.382;9.802;2023-06-26T22:52:00;94181.34;;;16.13;94.72
53522;BME280;39398;48.382;9.802;2023-06-26T22:57:04;94180.16;;;16.09;94.50
53522;BME280;39398;48.382;9.802;2023-06-26T23:02:05;94178.31;;;16.10;93.94
53522;BME280;39398;48.382;9.802;2023-06-26T23:07:07;94168.97;;;16.00;94.78
53522;BME280;39398;48.382;9.802;2023-06-26T23:12:10;94177.94;;;15.81;95.72
53522;BME280;39398;48.382;9.802;2023-06-26T23:17:12;94168.28;;;15.87;95.79
53522;BME280;39398;48.382;9.802;2023-06-26T23:22:14;94171.16;;;15.85;95.35
53522;BME280;39398;48.382;9.802;2023-06-26T23:27:17;94166.69;;;15.79;96.36
53522;BME280;39398;48.382;9.802;2023-06-26T23:32:19;94172.91;;;15.66;98.02
53522;BME280;39398;48.382;9.802;2023-06-26T23:37:20;94172.53;;;15.63;98.36
53522;BME280;39398;48.382;9.802;2023-06-26T23:42:23;94180.09;;;15.66;97.54
53522;BME280;39398;48.382;9.802;2023-06-26T23:47:25;94177.84;;;15.69;97.59
53522;BME280;39398;48.382;9.802;2023-06-26T23:52:27;94180.13;;;15.59;98.85
53522;BME280;39398;48.382;9.802;2023-06-26T23:57:29;94182.19;;;15.57;99.54
